Time;durP1;ratioP1;P1;durP2;ratioP2;P2;SDS_P1;SDS_P2;PMS_P1;PMS_P2;Temp;Humidity;BMP_temperature;BMP_pressure;BME280_temperature;BME280_humidity;BME280_pressure;Samples;Min_cycle;Max_cycle;Signal;HPM_P1;HPM_P2
2024/01/08 00:00:20;;;;;;;6.03;5.73;;;1.10;50.10;;;;;;20776;6724;275708;-77
2024/01/08 00:02:55;;;;;;;6.40;5.93;;;1.20;49.70;;;;;;20689;6724;299867;-77
2024/01/08 00:05:32;;;;;;;6.13;5.80;;;1.80;48.60;;;;;;20760;6724;305126;-78
2024/01/08 00:08:07;;;;;;;4.87;4.57;;;1.70;48.50;;;;;;20991;6724;117246;-80
2024/01/08 00:10:43;;;;;;;5.67;5.37;;;1.60;48.60;;;;;;20742;6724;305487;-77
2024/01/08 00:13:19;;;;;;;6.30;5.90;;;1.60;48.80;;;;;;20692;6724;279273;-77
2024/01/08 00:15:54;;;;;;;5.53;5.23;;;1.80;48.50;;;;;;20773;6724;276884;-74
2024/01/08 00:18:30;;;;;;;4.47;4.17;;;2.10;47.80;;;;;;20992;6724;117943;-75
2024/01/08 00:21:06;;;;;;;4.17;3.87;;;1.60;48.30;;;;;;20971;6724;117207;-75
2024/01/08 00:23:43;;;;;;;4.17;3.90;;;1.50;48.20;;;;;;20860;6724;118678;-77
2024/01/08 00:26:19;;;;;;;3.57;3.37;;;1.30;48.80;;;;;;20988;6724;118933;-77
2024/01/08 00:28:54;;;;;;;3.70;3.43;;;1.00;49.20;;;;;;20970;6724;117984;-79
2024/01/08 00:31:30;;;;;;;4.43;4.07;;;0.80;49.40;;;;;;20989;6724;116804;-77
2024/01/08 00:34:06;;;;;;;5.00;4.70;;;0.80;49.50;;;;;;20610;6724;309019;-77
2024/01/08 00:36:42;;;;;;;3.67;3.43;;;0.80;49.50;;;;;;20969;6724;117774;-76
2024/01/08 00:39:17;;;;;;;3.33;3.13;;;0.90;49.20;;;;;;20992;6724;116790;-75
2024/01/08 00:41:53;;;;;;;4.60;4.30;;;0.80;49.30;;;;;;20771;6724;304723;-75
2024/01/08 00:44:28;;;;;;;4.33;4.13;;;1.00;49.00;;;;;;20575;6724;307687;-75
2024/01/08 00:47:04;;;;;;;3.80;3.60;;;1.30;47.90;;;;;;20967;6724;116675;-75
2024/01/08 00:49:41;;;;;;;3.80;3.60;;;1.30;47.80;;;;;;20775;6724;304985;-75
2024/01/08 00:52:16;;;;;;;3.47;3.27;;;1.40;47.10;;;;;;20986;6724;116530;-74
2024/01/08 00:54:52;;;;;;;3.57;3.37;;;1.40;47.00;;;;;;20795;6780;140732;-75
2024/01/08 00:57:28;;;;;;;3.30;3.10;;;1.10;47.40;;;;;;20992;6724;120090;-75
2024/01/08 01:00:04;;;;;;;4.23;3.93;;;0.90;47.80;;;;;;20727;6739;305984;-75
2024/01/08 01:02:40;;;;;;;3.47;3.27;;;1.00;47.60;;;;;;20921;6739;116744;-75
2024/01/08 01:05:16;;;;;;;3.90;3.70;;;1.00;47.60;;;;;;20818;6709;304708;-75
2024/01/08 01:07:52;;;;;;;3.95;3.75;;;1.10;47.20;;;;;;20813;6714;276193;-76
2024/01/08 01:10:28;;;;;;;3.60;3.30;;;1.50;46.30;;;;;;21031;6709;117830;-76
2024/01/08 01:13:07;;;;;;;11.77;10.77;;;1.40;46.90;;;;;;20750;6709;278773;-76
2024/01/08 01:15:40;;;;;;;3.67;3.47;;;1.40;45.90;;;;;;20993;6709;120210;-76
2024/01/08 01:18:15;;;;;;;3.17;2.97;;;1.40;46.20;;;;;;21012;6598;117728;-72
2024/01/08 01:20:51;;;;;;;3.50;3.30;;;1.30;46.50;;;;;;20735;6726;277019;-73
2024/01/08 01:23:27;;;;;;;3.17;3.07;;;1.20;46.40;;;;;;20842;6740;119296;-72
2024/01/08 01:26:03;;;;;;;3.10;2.90;;;1.20;46.50;;;;;;21043;6699;116493;-73
2024/01/08 01:28:38;;;;;;;3.20;3.00;;;1.00;46.80;;;;;;20969;6732;117891;-72
2024/01/08 01:31:14;;;;;;;3.20;3.10;;;0.80;47.00;;;;;;20762;6722;276925;-72
2024/01/08 01:33:49;;;;;;;3.00;2.80;;;0.90;46.60;;;;;;20910;6722;118595;-73
2024/01/08 01:36:25;;;;;;;3.20;3.00;;;0.90;46.40;;;;;;21002;6721;117110;-73
2024/01/08 01:39:01;;;;;;;3.70;3.50;;;0.70;46.60;;;;;;20797;6706;299703;-74
2024/01/08 01:41:39;;;;;;;3.10;3.00;;;0.90;46.50;;;;;;21002;6706;118506;-73
2024/01/08 01:44:12;;;;;;;2.77;2.67;;;0.90;46.50;;;;;;20870;6706;117233;-73
2024/01/08 01:46:48;;;;;;;3.57;3.37;;;0.70;46.80;;;;;;20753;6735;290561;-73
2024/01/08 01:49:23;;;;;;;3.60;3.40;;;0.90;46.50;;;;;;20687;6748;305469;-73
2024/01/08 01:51:58;;;;;;;2.93;2.73;;;1.20;45.20;;;;;;20908;6731;116839;-73
2024/01/08 01:54:34;;;;;;;4.00;3.80;;;1.10;45.20;;;;;;20476;6752;309099;-72
2024/01/08 01:57:12;;;;;;;3.73;3.53;;;1.40;44.60;;;;;;20673;6751;277190;-73
2024/01/08 01:59:48;;;;;;;3.30;3.10;;;1.40;44.60;;;;;;20670;6759;308877;-73
2024/01/08 02:02:27;;;;;;;3.70;3.50;;;1.60;43.80;;;;;;20754;6747;306086;-73
2024/01/08 02:05:00;;;;;;;3.43;3.27;;;1.80;43.30;;;;;;20809;6726;306969;-72
2024/01/08 02:07:37;;;;;;;3.10;2.93;;;1.90;43.00;;;;;;21041;6708;117903;-73
2024/01/08 02:10:12;;;;;;;2.73;2.63;;;1.70;43.60;;;;;;21007;6708;116583;-72
2024/01/08 02:12:48;;;;;;;3.10;2.90;;;1.40;44.40;;;;;;20937;6723;118354;-72
2024/01/08 02:15:24;;;;;;;2.87;2.67;;;1.00;44.80;;;;;;21001;6720;117215;-73
2024/01/08 02:17:59;;;;;;;3.20;2.77;;;0.80;45.50;;;;;;20955;6740;116764;-72
2024/01/08 02:20:35;;;;;;;3.50;3.30;;;0.60;46.10;;;;;;20727;6735;337782;-74
2024/01/08 02:23:10;;;;;;;3.77;3.57;;;0.80;45.70;;;;;;20636;6747;336362;-72
2024/01/08 02:25:46;;;;;;;2.70;2.60;;;1.10;44.80;;;;;;20901;6753;117841;-72
2024/01/08 02:28:21;;;;;;;3.78;3.58;;;1.10;44.80;;;;;;20699;6747;335126;-73
2024/01/08 02:30:57;;;;;;;3.43;3.23;;;1.20;44.90;;;;;;20878;6753;117999;-73
2024/01/08 02:33:33;;;;;;;3.00;2.80;;;1.20;45.10;;;;;;20879;6732;117139;-72
2024/01/08 02:36:10;;;;;;;3.57;3.37;;;1.10;45.60;;;;;;20725;6743;309527;-72
2024/01/08 02:38:46;;;;;;;3.10;2.90;;;1.00;45.00;;;;;;20937;6750;117825;-72
2024/01/08 02:41:21;;;;;;;3.20;3.00;;;1.00;45.10;;;;;;20948;6750;117514;-73
2024/01/08 02:43:59;;;;;;;3.80;3.60;;;0.80;45.40;;;;;;20668;6736;278778;-73
2024/01/08 02:46:32;;;;;;;3.40;3.20;;;1.00;44.50;;;;;;20723;6741;305037;-72
2024/01/08 02:49:08;;;;;;;3.13;2.97;;;1.30;44.00;;;;;;20890;6750;119415;-73
2024/01/08 02:51:44;;;;;;;3.60;3.40;;;1.30;43.90;;;;;;20711;6751;311290;-73
2024/01/08 02:54:20;;;;;;;3.10;2.90;;;1.30;43.90;;;;;;20791;6741;118025;-73
2024/01/08 02:56:55;;;;;;;3.07;2.97;;;1.20;44.10;;;;;;20919;6741;117723;-74
2024/01/08 02:59:32;;;;;;;3.50;3.30;;;1.00;44.70;;;;;;20791;6726;276113;-73
2024/01/08 03:02:08;;;;;;;3.17;3.07;;;1.00;44.40;;;;;;20997;6724;116527;-72
2024/01/08 03:04:44;;;;;;;3.07;2.83;;;0.80;44.90;;;;;;20754;6739;117264;-73
2024/01/08 03:07:20;;;;;;;3.17;2.97;;;0.80;44.90;;;;;;20945;6740;118040;-72
2024/01/08 03:09:57;;;;;;;3.00;2.80;;;0.60;45.30;;;;;;20995;6725;116708;-72
2024/01/08 03:12:32;;;;;;;3.70;3.50;;;0.50;45.80;;;;;;20707;6743;277030;-73
2024/01/08 03:15:08;;;;;;;3.47;3.33;;;0.60;45.60;;;;;;20732;6732;275050;-73
2024/01/08 03:17:44;;;;;;;3.80;3.60;;;1.00;44.70;;;;;;20751;6733;298593;-73
2024/01/08 03:20:22;;;;;;;3.13;2.93;;;1.30;43.60;;;;;;20961;6733;118846;-72
2024/01/08 03:22:55;;;;;;;3.50;3.30;;;1.20;43.90;;;;;;20877;6739;117509;-73
2024/01/08 03:25:31;;;;;;;3.90;3.70;;;1.10;44.50;;;;;;20781;6723;275676;-73
2024/01/08 03:28:07;;;;;;;8.23;7.53;;;1.10;44.50;;;;;;20947;6738;117172;-73
2024/01/08 03:30:43;;;;;;;4.55;4.30;;;1.10;44.50;;;;;;20695;6743;335275;-73
2024/01/08 03:33:19;;;;;;;3.53;3.33;;;1.10;44.40;;;;;;20877;6738;117051;-73
2024/01/08 03:35:55;;;;;;;4.40;4.13;;;1.10;44.90;;;;;;20735;6738;329084;-73
2024/01/08 03:38:30;;;;;;;3.57;3.37;;;1.30;44.60;;;;;;20946;6738;117936;-72
2024/01/08 03:41:06;;;;;;;4.33;4.13;;;1.30;44.60;;;;;;20712;6738;334379;-73
2024/01/08 03:43:43;;;;;;;4.50;4.20;;;1.40;44.40;;;;;;20597;6738;310084;-73
2024/01/08 03:46:18;;;;;;;4.40;4.20;;;1.60;43.70;;;;;;20797;6730;277034;-72
2024/01/08 03:48:53;;;;;;;4.30;4.00;;;1.80;43.10;;;;;;20671;6747;306961;-72
2024/01/08 03:51:32;;;;;;;4.80;4.50;;;2.00;42.00;;;;;;20714;6743;305767;-71
2024/01/08 03:54:08;;;;;;;4.70;4.40;;;2.00;42.00;;;;;;20773;6732;117743;-72
2024/01/08 03:56:44;;;;;;;3.80;3.60;;;1.80;42.80;;;;;;20892;6748;118297;-72
2024/01/08 03:59:19;;;;;;;4.60;4.30;;;1.50;43.60;;;;;;20702;6747;336146;-72
2024/01/08 04:01:55;;;;;;;4.40;4.20;;;1.50;43.50;;;;;;20775;6726;276651;-72
2024/01/08 04:04:31;;;;;;;3.90;3.70;;;1.60;43.40;;;;;;20806;6726;117114;-72
2024/01/08 04:07:07;;;;;;;4.65;4.35;;;1.50;43.30;;;;;;20691;6745;306058;-72
2024/01/08 04:09:43;;;;;;;4.07;3.80;;;1.40;43.30;;;;;;20927;6745;117124;-72
2024/01/08 04:12:19;;;;;;;4.37;4.18;;;1.40;43.20;;;;;;20766;6741;304887;-72
2024/01/08 04:14:54;;;;;;;4.93;4.62;;;1.40;43.30;;;;;;20454;6822;339520;-73
2024/01/08 04:17:30;;;;;;;4.60;4.40;;;1.60;43.20;;;;;;20788;6721;305760;-73
2024/01/08 04:20:06;;;;;;;4.20;4.00;;;1.80;42.70;;;;;;20771;6724;319665;-72
2024/01/08 04:22:43;;;;;;;3.57;3.37;;;2.00;42.50;;;;;;20981;6721;116619;-73
2024/01/08 04:25:18;;;;;;;4.37;4.18;;;1.70;42.60;;;;;;20766;6732;306111;-71
2024/01/08 04:27:55;;;;;;;4.60;4.40;;;1.70;42.80;;;;;;20711;6743;309748;-73
2024/01/08 04:30:33;;;;;;;3.97;3.77;;;1.70;43.00;;;;;;20977;6728;117106;-72
2024/01/08 04:33:06;;;;;;;4.50;4.23;;;1.70;42.90;;;;;;20689;6728;304876;-72
2024/01/08 04:35:41;;;;;;;3.50;3.30;;;1.60;42.80;;;;;;20902;6750;117252;-72
2024/01/08 04:38:17;;;;;;;4.37;4.07;;;1.60;43.20;;;;;;20643;6747;333349;-72
2024/01/08 04:40:53;;;;;;;4.33;4.03;;;1.50;42.70;;;;;;20658;6747;302893;-73
2024/01/08 04:43:29;;;;;;;3.90;3.63;;;1.60;43.30;;;;;;20853;6735;118096;-73
2024/01/08 04:46:05;;;;;;;4.53;4.25;;;1.60;43.00;;;;;;20728;6736;275495;-76
2024/01/08 04:48:40;;;;;;;4.43;4.20;;;1.60;43.20;;;;;;20662;6751;306528;-76
2024/01/08 04:51:22;;;;;;;3.80;3.60;;;1.80;42.90;;;;;;20935;6736;117010;-77
2024/01/08 04:53:58;;;;;;;3.70;3.50;;;1.70;42.90;;;;;;20829;6721;116989;-77
2024/01/08 04:56:35;;;;;;;4.43;4.23;;;1.40;43.50;;;;;;20735;6736;305739;-76
2024/01/08 04:59:10;;;;;;;3.40;3.20;;;1.40;43.60;;;;;;20890;6750;116912;-76
2024/01/08 05:01:46;;;;;;;3.17;2.97;;;1.30;43.60;;;;;;20947;6732;117215;-76
2024/01/08 05:04:22;;;;;;;4.03;3.83;;;1.00;43.80;;;;;;20551;6747;308714;-76
2024/01/08 05:06:58;;;;;;;4.17;3.97;;;1.10;43.30;;;;;;20766;6736;276602;-76
2024/01/08 05:09:34;;;;;;;3.60;3.40;;;1.20;42.50;;;;;;21047;6721;115770;-75
2024/01/08 05:12:10;;;;;;;3.40;3.20;;;1.20;42.50;;;;;;21011;6732;116688;-74
2024/01/08 05:14:45;;;;;;;4.70;4.40;;;0.90;43.20;;;;;;20553;6732;278036;-77
2024/01/08 05:17:21;;;;;;;3.60;3.40;;;0.90;43.20;;;;;;20985;6736;116781;-75
2024/01/08 05:19:58;;;;;;;4.83;4.53;;;0.90;43.20;;;;;;20748;6736;278053;-75
2024/01/08 05:22:33;;;;;;;4.12;3.92;;;1.00;42.90;;;;;;20767;6736;289302;-75
2024/01/08 05:25:09;;;;;;;4.10;3.90;;;1.20;42.10;;;;;;20938;6750;116703;-76
2024/01/08 05:27:45;;;;;;;4.10;3.90;;;1.10;42.30;;;;;;20764;6736;290915;-75
2024/01/08 05:30:21;;;;;;;4.30;4.10;;;1.10;42.20;;;;;;20738;6749;336250;-77
2024/01/08 05:32:57;;;;;;;4.03;3.73;;;1.20;42.20;;;;;;20920;6741;120110;-77
2024/01/08 05:35:34;;;;;;;3.17;2.97;;;1.20;42.20;;;;;;21016;6730;116868;-76
2024/01/08 05:38:08;;;;;;;4.30;3.97;;;0.90;42.80;;;;;;20972;6740;116712;-77
2024/01/08 05:40:44;;;;;;;4.60;4.30;;;0.70;43.40;;;;;;20673;6740;276046;-79
2024/01/08 05:43:20;;;;;;;4.40;4.10;;;0.80;43.30;;;;;;20841;6747;119241;-78
2024/01/08 05:45:55;;;;;;;3.80;3.60;;;0.70;43.10;;;;;;20989;6725;116659;-81
2024/01/08 05:48:37;;;;;;;4.13;3.83;;;0.50;43.50;;;;;;20978;6726;117378;-79
2024/01/08 05:51:07;;;;;;;4.80;4.40;;;0.50;43.90;;;;;;20705;6743;278042;-79
2024/01/08 05:53:43;;;;;;;4.20;3.80;;;0.50;43.90;;;;;;20810;6739;117182;-80
2024/01/08 05:56:18;;;;;;;3.57;3.33;;;0.60;43.90;;;;;;20950;6739;117365;-77
2024/01/08 05:58:55;;;;;;;4.60;4.30;;;0.40;44.00;;;;;;20758;6721;304934;-77
2024/01/08 06:01:34;;;;;;;4.10;3.90;;;0.60;44.00;;;;;;20937;6736;117486;-77
2024/01/08 06:04:06;;;;;;;5.20;4.90;;;0.60;43.90;;;;;;20593;6736;319154;-78
2024/01/08 06:06:42;;;;;;;5.07;4.77;;;0.70;43.60;;;;;;20993;6721;117088;-80
2024/01/08 06:09:18;;;;;;;5.07;4.77;;;0.70;43.50;;;;;;20761;6732;276255;-86
2024/01/08 06:11:54;;;;;;;4.03;3.67;;;0.80;43.60;;;;;;20853;6762;119179;-79
2024/01/08 06:14:29;;;;;;;4.47;4.07;;;0.70;43.50;;;;;;20748;6751;117048;-75
2024/01/08 06:17:05;;;;;;;4.80;4.50;;;0.50;44.00;;;;;;20619;6751;309419;-77
2024/01/08 06:19:41;;;;;;;4.40;4.10;;;0.60;44.00;;;;;;20959;6747;117183;-75
2024/01/08 06:22:17;;;;;;;4.80;4.50;;;0.80;43.90;;;;;;20788;6732;307014;-75
2024/01/08 06:24:56;;;;;;;4.75;4.43;;;0.70;43.80;;;;;;20507;6799;338113;-77
2024/01/08 06:27:28;;;;;;;3.93;3.73;;;1.00;42.90;;;;;;20905;6744;117728;-79
2024/01/08 06:30:04;;;;;;;4.90;4.60;;;1.00;42.90;;;;;;20757;6733;305103;-76
2024/01/08 06:32:40;;;;;;;4.83;4.53;;;1.00;42.80;;;;;;20742;6722;307872;-75
2024/01/08 06:35:15;;;;;;;3.73;3.53;;;1.20;42.40;;;;;;20991;6720;116742;-76
2024/01/08 06:37:52;;;;;;;4.23;3.93;;;1.10;42.50;;;;;;21002;6720;116728;-79
2024/01/08 06:40:27;;;;;;;3.47;3.27;;;0.80;43.10;;;;;;20946;6724;117889;-76
2024/01/08 06:43:03;;;;;;;4.60;4.30;;;0.50;43.50;;;;;;20707;6724;293302;-76
2024/01/08 06:45:40;;;;;;;5.10;4.80;;;0.90;42.80;;;;;;20767;6726;306010;-83
2024/01/08 06:48:15;;;;;;;3.97;3.67;;;0.90;42.80;;;;;;20976;6726;116881;-78
2024/01/08 06:50:51;;;;;;;3.60;3.40;;;0.90;43.00;;;;;;20931;6747;116747;-76
2024/01/08 06:53:27;;;;;;;4.10;3.90;;;0.40;43.80;;;;;;20864;6734;117783;-75
2024/01/08 06:56:04;;;;;;;5.07;4.68;;;0.40;43.70;;;;;;20709;6743;306973;-76
2024/01/08 06:58:40;;;;;;;4.85;4.57;;;0.60;43.50;;;;;;20748;6743;290362;-76
2024/01/08 07:01:18;;;;;;;4.40;4.10;;;0.90;43.10;;;;;;20957;6728;117279;-76
2024/01/08 07:03:58;;;;;;;6.53;5.93;;;0.90;42.80;;;;;;20644;6726;308077;-77
2024/01/08 07:06:32;;;;;;;5.40;4.90;;;0.90;42.80;;;;;;20761;6730;276583;-76
2024/01/08 07:09:07;;;;;;;5.37;4.97;;;1.20;42.20;;;;;;20732;6733;276234;-76
2024/01/08 07:11:43;;;;;;;4.97;4.67;;;1.40;41.80;;;;;;20967;6733;116785;-76
2024/01/08 07:14:19;;;;;;;21.40;14.87;;;1.20;42.00;;;;;;20787;6733;117568;-75
2024/01/08 07:16:54;;;;;;;6.63;6.10;;;0.90;42.60;;;;;;20956;6615;117795;-77
2024/01/08 07:19:30;;;;;;;5.30;4.80;;;0.70;43.30;;;;;;20959;6732;117198;-77
2024/01/08 07:22:06;;;;;;;6.40;4.87;;;0.30;44.00;;;;;;20992;6717;117163;-77
2024/01/08 07:24:42;;;;;;;4.70;4.30;;;0.20;43.90;;;;;;20788;6732;117556;-76
2024/01/08 07:27:17;;;;;;;4.40;4.00;;;0.10;44.20;;;;;;20951;6732;117075;-75
2024/01/08 07:29:57;;;;;;;6.67;6.17;;;0.20;44.60;;;;;;20724;6747;276700;-75
2024/01/08 07:32:29;;;;;;;4.23;3.93;;;0.20;44.50;;;;;;20997;6732;116818;-76
2024/01/08 07:35:05;;;;;;;4.30;4.00;;;0.30;44.40;;;;;;20885;6760;117505;-75
2024/01/08 07:37:43;;;;;;;3.90;3.60;;;0.10;44.90;;;;;;20941;6758;117082;-76
2024/01/08 07:40:18;;;;;;;3.90;3.60;;;0.10;44.80;;;;;;20963;6745;116691;-76
2024/01/08 07:42:54;;;;;;;5.57;5.17;;;0.00;44.90;;;;;;20650;6745;308239;-77
2024/01/08 07:45:29;;;;;;;5.50;5.20;;;0.20;44.50;;;;;;20704;6760;276657;-77
2024/01/08 07:48:05;;;;;;;4.40;4.10;;;0.60;43.90;;;;;;20887;6762;117790;-77
2024/01/08 07:50:41;;;;;;;4.23;3.93;;;0.60;43.70;;;;;;20897;6760;117119;-74
2024/01/08 07:53:16;;;;;;;5.30;5.00;;;0.40;43.80;;;;;;20633;6762;337749;-75
2024/01/08 07:55:52;;;;;;;4.40;4.03;;;0.50;43.50;;;;;;20955;6745;116694;-76
2024/01/08 07:58:29;;;;;;;5.70;5.20;;;0.60;43.20;;;;;;20715;6744;279376;-78
2024/01/08 08:01:04;;;;;;;4.90;4.50;;;0.60;43.10;;;;;;20876;6761;116906;-76
2024/01/08 08:03:39;;;;;;;4.90;4.60;;;0.60;43.20;;;;;;20801;6762;118818;-77
2024/01/08 08:06:16;;;;;;;6.17;5.67;;;0.60;43.40;;;;;;20713;6732;276944;-74
2024/01/08 08:08:51;;;;;;;4.77;4.47;;;0.50;43.30;;;;;;20762;6772;117764;-74
2024/01/08 08:11:27;;;;;;;4.27;3.97;;;0.60;43.50;;;;;;20917;6747;116855;-74
2024/01/08 08:14:04;;;;;;;5.30;4.90;;;0.60;43.70;;;;;;20545;6759;310957;-75
2024/01/08 08:16:41;;;;;;;4.93;4.63;;;0.60;43.70;;;;;;20921;6746;116817;-74
2024/01/08 08:19:17;;;;;;;4.47;4.17;;;0.40;43.80;;;;;;20913;6749;117026;-73
2024/01/08 08:21:53;;;;;;;5.60;5.10;;;0.40;43.80;;;;;;20781;6734;328948;-73
2024/01/08 08:24:29;;;;;;;5.00;4.70;;;0.50;43.50;;;;;;20797;6734;117300;-73
2024/01/08 08:27:08;;;;;;;6.67;5.97;;;0.70;43.40;;;;;;20733;6734;304160;-75
2024/01/08 08:29:41;;;;;;;4.40;4.00;;;0.70;43.40;;;;;;20996;6719;117567;-75
2024/01/08 08:32:16;;;;;;;4.80;4.40;;;0.70;43.50;;;;;;21001;6734;116841;-76
2024/01/08 08:34:52;;;;;;;5.47;5.10;;;0.60;43.90;;;;;;20497;6805;309257;-77
2024/01/08 08:37:27;;;;;;;5.60;5.20;;;0.70;43.50;;;;;;20740;6732;306353;-76
2024/01/08 08:40:03;;;;;;;5.00;4.60;;;1.00;42.80;;;;;;20918;6743;116859;-77
2024/01/08 08:42:38;;;;;;;4.83;4.40;;;1.00;42.70;;;;;;20877;6743;117373;-76
2024/01/08 08:45:17;;;;;;;4.70;4.40;;;0.70;43.00;;;;;;20906;6745;116843;-77
2024/01/08 08:47:50;;;;;;;3.80;3.50;;;0.40;44.00;;;;;;20908;6749;116778;-78
2024/01/08 08:50:27;;;;;;;6.25;5.75;;;0.30;43.80;;;;;;20705;6745;277224;-76
2024/01/08 08:53:02;;;;;;;5.07;4.60;;;0.50;43.60;;;;;;20835;6749;117360;-77
2024/01/08 08:55:37;;;;;;;5.80;5.40;;;0.60;43.50;;;;;;20770;6734;307181;-76
2024/01/08 08:58:13;;;;;;;5.03;4.67;;;0.70;43.40;;;;;;20954;6734;116739;-76
2024/01/08 09:00:48;;;;;;;4.70;4.30;;;0.80;43.50;;;;;;20977;6734;117269;-76
2024/01/08 09:03:24;;;;;;;6.47;6.00;;;0.70;43.60;;;;;;20856;6734;117445;-78
2024/01/08 09:06:00;;;;;;;4.27;3.93;;;0.40;44.90;;;;;;20940;6734;118564;-81
2024/01/08 09:08:36;;;;;;;5.00;4.70;;;0.30;44.10;;;;;;20731;6734;306440;-79
2024/01/08 09:11:11;;;;;;;4.20;3.90;;;0.50;43.60;;;;;;20942;6734;119132;-79
2024/01/08 09:13:47;;;;;;;5.30;5.00;;;0.50;43.50;;;;;;20612;6734;306043;-80
2024/01/08 09:16:26;;;;;;;4.23;3.83;;;0.70;43.00;;;;;;20956;6734;118238;-79
2024/01/08 09:18:58;;;;;;;5.83;5.43;;;0.70;42.90;;;;;;20724;6734;277609;-78
2024/01/08 09:21:34;;;;;;;5.23;4.73;;;0.80;42.30;;;;;;20954;6734;116744;-76
2024/01/08 09:24:09;;;;;;;5.50;5.10;;;0.70;42.30;;;;;;20573;6734;309155;-76
2024/01/08 09:26:45;;;;;;;5.30;4.33;;;0.80;42.10;;;;;;20941;6734;117823;-76
2024/01/08 09:29:21;;;;;;;8.17;7.57;;;0.70;42.20;;;;;;20953;6734;117499;-76
2024/01/08 09:31:56;;;;;;;4.70;4.30;;;0.60;42.60;;;;;;20951;6734;117696;-78
2024/01/08 09:34:32;;;;;;;7.20;6.60;;;0.30;42.90;;;;;;20537;6734;308092;-76
2024/01/08 09:37:07;;;;;;;18.13;16.50;;;0.50;42.80;;;;;;20723;6734;277757;-76
2024/01/08 09:39:43;;;;;;;13.37;11.20;;;0.80;42.30;;;;;;20942;6734;117594;-76
2024/01/08 09:42:18;;;;;;;32.63;27.00;;;0.80;42.30;;;;;;20739;6734;305581;-76
2024/01/08 09:44:54;;;;;;;11.30;10.40;;;0.90;42.10;;;;;;20666;6805;279192;-76
2024/01/08 09:47:30;;;;;;;6.70;6.10;;;1.10;41.40;;;;;;20949;6734;117661;-78
2024/01/08 09:50:05;;;;;;;5.80;5.40;;;1.00;41.50;;;;;;20953;6734;116784;-76
2024/01/08 09:52:41;;;;;;;5.90;5.47;;;0.80;42.10;;;;;;20712;6734;275744;-76
2024/01/08 09:55:16;;;;;;;4.83;4.53;;;0.80;42.00;;;;;;20949;6734;117371;-76
2024/01/08 09:57:52;;;;;;;5.20;4.80;;;0.80;42.10;;;;;;20952;6734;117278;-78
2024/01/08 10:00:28;;;;;;;5.70;5.30;;;0.60;42.30;;;;;;20743;6734;317756;-78
2024/01/08 10:03:04;;;;;;;5.23;4.90;;;0.70;42.30;;;;;;20874;6734;117088;-77
2024/01/08 10:05:40;;;;;;;5.45;5.05;;;0.80;42.20;;;;;;20737;6734;336349;-84
2024/01/08 10:08:21;;;;;;;6.60;6.10;;;0.80;42.20;;;;;;20954;6734;116730;-76
2024/01/08 10:10:53;;;;;;;6.00;5.60;;;0.80;42.20;;;;;;20718;6734;290922;-76
2024/01/08 10:13:29;;;;;;;5.70;5.03;;;1.20;41.30;;;;;;20634;6734;308144;-76
2024/01/08 10:16:05;;;;;;;3.83;3.63;;;1.20;41.30;;;;;;20953;6734;117318;-76
2024/01/08 10:18:40;;;;;;;5.70;5.27;;;1.20;41.40;;;;;;20756;6734;305506;-76
2024/01/08 10:21:17;;;;;;;7.40;6.97;;;1.20;41.30;;;;;;20961;6734;117777;-78
2024/01/08 10:23:53;;;;;;;5.93;5.43;;;1.10;41.40;;;;;;20820;6734;117335;-76
2024/01/08 10:26:28;;;;;;;5.10;4.80;;;0.90;42.00;;;;;;20686;6805;276613;-76
2024/01/08 10:29:04;;;;;;;3.77;3.53;;;1.00;41.70;;;;;;20929;6734;119455;-77
2024/01/08 10:31:40;;;;;;;6.50;6.00;;;1.10;41.80;;;;;;20784;6719;305597;-74
2024/01/08 10:34:16;;;;;;;5.20;4.80;;;1.10;41.20;;;;;;20638;6734;322783;-75
2024/01/08 10:36:52;;;;;;;4.10;3.90;;;1.40;40.50;;;;;;20976;6734;142694;-76
2024/01/08 10:39:30;;;;;;;5.13;4.83;;;1.30;40.50;;;;;;20733;6734;301000;-75
2024/01/08 10:42:03;;;;;;;5.10;4.80;;;1.50;40.00;;;;;;20780;6734;305080;-75
2024/01/08 10:44:39;;;;;;;4.20;3.90;;;1.50;39.90;;;;;;20741;6734;117384;-75
2024/01/08 10:47:15;;;;;;;4.97;4.67;;;1.40;40.10;;;;;;20722;6734;305555;-75
2024/01/08 10:49:50;;;;;;;4.40;4.13;;;1.40;39.90;;;;;;20951;6734;116694;-75
2024/01/08 10:52:29;;;;;;;4.60;4.20;;;1.40;40.40;;;;;;20947;6734;117089;-77
2024/01/08 10:55:05;;;;;;;4.97;4.67;;;1.20;40.50;;;;;;20720;6734;306313;-75
2024/01/08 10:57:55;;;;;;;5.53;5.20;;;1.20;40.50;;;;;;20742;6734;335554;-76
2024/01/08 11:00:30;;;;;;;5.93;5.53;;;1.40;39.80;;;;;;20728;6734;305619;-77
2024/01/08 11:03:06;;;;;;;5.17;4.87;;;1.60;39.30;;;;;;20867;6734;117522;-77
2024/01/08 11:05:42;;;;;;;5.40;5.00;;;1.60;39.70;;;;;;20743;6734;306014;-76
2024/01/08 11:08:19;;;;;;;4.93;4.63;;;1.70;39.50;;;;;;20719;6734;310448;-76
2024/01/08 11:10:54;;;;;;;6.77;5.07;;;1.60;39.40;;;;;;20933;6734;117627;-77
2024/01/08 11:13:30;;;;;;;5.13;4.83;;;1.50;40.00;;;;;;20621;6734;308276;-76
2024/01/08 11:16:06;;;;;;;5.00;4.70;;;1.50;39.90;;;;;;20954;6734;116808;-78
2024/01/08 11:18:44;;;;;;;3.97;3.63;;;1.40;40.20;;;;;;20934;6734;118066;-77
2024/01/08 11:21:18;;;;;;;4.00;3.67;;;1.00;41.20;;;;;;20949;6734;116892;-80
2024/01/08 11:23:55;;;;;;;4.23;3.93;;;1.00;41.20;;;;;;20782;6734;117234;-77
2024/01/08 11:26:31;;;;;;;4.87;4.57;;;0.90;41.90;;;;;;20925;6734;118043;-77
2024/01/08 11:29:08;;;;;;;5.13;4.77;;;0.80;42.20;;;;;;20710;6734;303570;-77
2024/01/08 11:31:46;;;;;;;4.57;4.27;;;1.00;42.10;;;;;;20946;6734;117329;-76
2024/01/08 11:34:28;;;;;;;4.27;3.97;;;1.10;42.10;;;;;;20769;6734;117477;-76
2024/01/08 11:37:26;;;;;;;4.93;4.53;;;1.00;41.90;;;;;;20925;6734;118308;-76
2024/01/08 11:40:18;;;;;;;6.20;5.80;;;0.90;42.20;;;;;;20730;6734;335791;-75
2024/01/08 11:42:54;;;;;;;6.77;6.07;;;1.10;41.90;;;;;;20900;6734;117177;-77
2024/01/08 11:45:31;;;;;;;5.77;4.63;;;1.20;42.00;;;;;;20971;6734;67530;-77
2024/01/08 11:48:07;;;;;;;4.90;4.50;;;1.10;42.30;;;;;;20977;6734;67576;-81
2024/01/08 11:50:42;;;;;;;5.68;5.18;;;1.00;42.50;;;;;;20762;6734;305507;-78
2024/01/08 11:53:18;;;;;;;5.27;4.77;;;1.20;42.00;;;;;;20885;6734;68259;-78
2024/01/08 11:55:54;;;;;;;8.37;7.77;;;1.30;42.10;;;;;;20759;6734;305550;-80
2024/01/08 11:58:29;;;;;;;4.93;4.53;;;1.50;41.30;;;;;;20975;6734;69058;-79
2024/01/08 12:01:18;;;;;;;4.33;4.03;;;1.50;41.20;;;;;;20969;6734;67610;-79
2024/01/08 12:04:00;;;;;;;5.97;5.53;;;1.40;41.50;;;;;;20621;6734;280607;-79
2024/01/08 12:06:35;;;;;;;5.83;5.33;;;1.50;41.00;;;;;;20974;6734;68820;-78
2024/01/08 12:09:11;;;;;;;5.93;5.43;;;1.50;41.30;;;;;;20760;6734;306389;-76
2024/01/08 12:11:48;;;;;;;4.73;4.43;;;1.70;41.00;;;;;;20972;6734;67830;-80
2024/01/08 12:14:24;;;;;;;4.83;4.53;;;1.50;41.60;;;;;;20780;6791;70677;-81
2024/01/08 12:17:00;;;;;;;5.43;5.13;;;1.50;41.60;;;;;;20763;6734;335510;-78
2024/01/08 12:19:45;;;;;;;4.40;4.00;;;1.70;41.20;;;;;;20974;6734;68403;-77
2024/01/08 12:22:21;;;;;;;4.50;4.20;;;1.70;41.10;;;;;;20981;6734;68677;-79
2024/01/08 12:24:56;;;;;;;4.07;3.77;;;1.50;41.60;;;;;;20978;6734;68308;-75
2024/01/08 12:27:32;;;;;;;5.33;4.93;;;1.40;42.10;;;;;;20971;6734;67446;-76
2024/01/08 12:30:08;;;;;;;4.27;3.97;;;1.20;42.30;;;;;;20971;6734;67729;-76
2024/01/08 12:32:43;;;;;;;5.50;5.10;;;1.10;42.60;;;;;;20727;6734;311048;-76
2024/01/08 12:35:19;;;;;;;6.10;5.70;;;1.20;42.00;;;;;;20759;6734;277035;-77
2024/01/08 12:37:54;;;;;;;4.20;3.90;;;1.60;41.10;;;;;;20977;6734;67903;-76
2024/01/08 12:40:33;;;;;;;4.60;4.30;;;1.60;41.20;;;;;;20967;6734;67123;-77
2024/01/08 12:43:05;;;;;;;6.27;5.77;;;1.50;41.60;;;;;;20697;6734;305706;-77
2024/01/08 12:45:49;;;;;;;7.23;6.50;;;1.50;41.00;;;;;;20753;6734;305597;-74
2024/01/08 12:48:24;;;;;;;5.90;5.50;;;2.10;39.80;;;;;;20693;6734;334535;-73
2024/01/08 12:51:00;;;;;;;5.37;5.07;;;2.00;39.80;;;;;;20752;6734;307323;-79
2024/01/08 12:53:35;;;;;;;5.87;5.47;;;2.30;39.40;;;;;;20641;6734;278513;-75
2024/01/08 12:56:11;;;;;;;4.50;4.20;;;2.40;38.80;;;;;;20959;6734;68498;-75
2024/01/08 12:58:50;;;;;;;4.70;4.30;;;2.20;39.40;;;;;;20947;6734;72403;-75
2024/01/08 13:01:26;;;;;;;5.53;5.20;;;1.80;40.10;;;;;;20756;6734;276585;-78
2024/01/08 13:04:02;;;;;;;4.67;4.37;;;1.90;40.30;;;;;;20789;6734;67558;-74
2024/01/08 13:06:40;;;;;;;5.63;5.23;;;1.80;40.60;;;;;;20756;6734;276335;-75
2024/01/08 13:09:13;;;;;;;5.40;5.10;;;1.90;40.10;;;;;;20754;6734;294028;-75
2024/01/08 13:11:49;;;;;;;4.47;4.17;;;2.10;39.60;;;;;;20972;6734;67932;-75
2024/01/08 13:14:24;;;;;;;4.63;4.33;;;1.90;39.80;;;;;;20781;6734;67836;-75
2024/01/08 13:17:00;;;;;;;5.50;5.10;;;1.70;40.30;;;;;;20765;6734;275754;-75
2024/01/08 13:19:35;;;;;;;4.70;4.40;;;1.70;40.40;;;;;;20945;6734;117788;-75
2024/01/08 13:22:11;;;;;;;5.33;4.87;;;1.60;40.60;;;;;;20959;6734;117247;-75
2024/01/08 13:24:46;;;;;;;5.03;4.40;;;1.40;41.00;;;;;;20708;6734;118889;-75
2024/01/08 13:27:23;;;;;;;4.03;3.73;;;1.00;41.90;;;;;;20953;6734;119472;-75
2024/01/08 13:29:58;;;;;;;3.83;3.53;;;1.00;41.90;;;;;;20949;6734;116748;-74
2024/01/08 13:32:34;;;;;;;3.80;3.40;;;0.90;42.30;;;;;;20934;6734;116739;-73